Terminal Aerodrome Forecast
Issued by NWS New Orleans/Baton Rouge, LA

Home | Current Version | Previous Version | Text Only | Print | Product List | Glossary On
Versions: 1 2 3 4 5 6 7 8 9 10 11 12 13 14 15 16 17 18 19 20 21 22 23 24 25 26 27 28 29 30 31 32 33 34 35
000
FTUS44 KLIX 271140
TAFNEW
TAF
KNEW 271140Z 2712/2812 14005KT P6SM SCT030
     FM271400 15009KT P6SM VCTS SCT030CB
      TEMPO 2716/2720 VRB35KT 2SM TSRA BKN025CB
     FM280000 14008KT P6SM BKN200=

USA.gov is the U.S. government's official web portal to all federal, state and local government web resources and services.